KBFM/BFM METAR and TAF weather

Enter ICAO airport designator
Station Type Date Time Source
KBFM METAR 2018/10/19 14:53 UTC NOAA

KBFM 191453Z 03004KT 10SM FEW032 24/18 A3024 RMK AO2 SLP239 TCU DSNT S T02390183 51009


Station Type Date Time Source
KBFM Decoded METAR 2018/10/19 14:53 UTC NOAA

MOBILE DOWNTOWN AIRPORT, AL, United States (KBFM) 30-38N 88-04W 20M
Oct 19, 2018 - 10:53 AM EDT / 2018.10.19 1453 UTC
Wind: from the NNE (030 degrees) at 5 MPH (4 KT):0
Visibility: 10 mile(s):0
Sky conditions: mostly clear
Weather: Towering cumulus clouds observed
Temperature: 75.0 F (23.9 C)
Dew Point: 64.9 F (18.3 C)
Relative Humidity: 70%
Pressure (altimeter): 30.24 in. Hg (1024 hPa)
Pressure tendency: 0.03 inches (0.9 hPa) higher than three hours ago
ob: KBFM 191453Z 03004KT 10SM FEW032 24/18 A3024 RMK AO2 SLP239 TCU DSNT S T02390183 51009
cycle: 15

Station Type Date Time Source
KBFM TAF 2018/10/19 12:22 UTC NOAA

TAF KBFM 191120Z 1912/2012 01006KT P6SM SCT250
FM191500 09006KT P6SM SCT030 BKN250
FM191800 13005KT P6SM VCSH BKN040
FM200000 16003KT P6SM BKN250
FM201000 VRB02KT 6SM BR BKN004


Example: see airport list